sensor_id;sensor_type;location;lat;lon;timestamp;temperature;humidity
15048;DHT22;7621;52.350;13.308;2023-03-15T17:06:17;7.20;81.80
15048;DHT22;7621;52.350;13.308;2023-03-15T17:08:47;7.00;82.30
15048;DHT22;7621;52.350;13.308;2023-03-15T17:11:13;6.90;82.70
15048;DHT22;7621;52.350;13.308;2023-03-15T17:13:39;6.80;82.80
15048;DHT22;7621;52.350;13.308;2023-03-15T17:16:15;6.70;83.20
15048;DHT22;7621;52.350;13.308;2023-03-15T17:18:42;6.70;83.70
15048;DHT22;7621;52.350;13.308;2023-03-15T17:21:16;6.60;84.00
15048;DHT22;7621;52.350;13.308;2023-03-15T17:23:45;6.50;84.40
15048;DHT22;7621;52.350;13.308;2023-03-15T17:26:12;6.40;84.50
15048;DHT22;7621;52.350;13.308;2023-03-15T17:28:38;6.30;84.60
15048;DHT22;7621;52.350;13.308;2023-03-15T17:31:04;6.20;84.70
15048;DHT22;7621;52.350;13.308;2023-03-15T17:33:30;6.20;85.60
15048;DHT22;7621;52.350;13.308;2023-03-15T17:35:56;6.10;85.00
15048;DHT22;7621;52.350;13.308;2023-03-15T17:38:28;6.00;85.20
15048;DHT22;7621;52.350;13.308;2023-03-15T17:40:57;6.00;85.40
15048;DHT22;7621;52.350;13.308;2023-03-15T17:43:22;5.90;86.10
15048;DHT22;7621;52.350;13.308;2023-03-15T17:45:48;5.90;86.40
15048;DHT22;7621;52.350;13.308;2023-03-15T17:48:13;5.80;86.70
15048;DHT22;7621;52.350;13.308;2023-03-15T17:50:41;5.80;87.00
15048;DHT22;7621;52.350;13.308;2023-03-15T17:53:18;5.70;86.90
15048;DHT22;7621;52.350;13.308;2023-03-15T17:55:44;5.60;87.30
15048;DHT22;7621;52.350;13.308;2023-03-15T17:58:19;5.60;87.70
15048;DHT22;7621;52.350;13.308;2023-03-15T18:00:46;5.60;88.00
15048;DHT22;7621;52.350;13.308;2023-03-15T18:03:13;5.50;88.20
15048;DHT22;7621;52.350;13.308;2023-03-15T18:05:39;5.50;88.60
15048;DHT22;7621;52.350;13.308;2023-03-15T18:08:05;5.40;88.80
15048;DHT22;7621;52.350;13.308;2023-03-15T18:10:35;5.40;89.10
15048;DHT22;7621;52.350;13.308;2023-03-15T18:13:01;5.30;89.40
15048;DHT22;7621;52.350;13.308;2023-03-15T18:15:27;5.30;89.70
15048;DHT22;7621;52.350;13.308;2023-03-15T18:17:52;5.20;89.90
15048;DHT22;7621;52.350;13.308;2023-03-15T18:20:18;5.20;90.00
15048;DHT22;7621;52.350;13.308;2023-03-15T18:22:47;5.10;90.00
15048;DHT22;7621;52.350;13.308;2023-03-15T18:25:21;5.10;90.20
15048;DHT22;7621;52.350;13.308;2023-03-15T18:27:47;5.00;90.30
15048;DHT22;7621;52.350;13.308;2023-03-15T18:30:16;5.00;90.40
15048;DHT22;7621;52.350;13.308;2023-03-15T18:32:43;4.90;90.50
15048;DHT22;7621;52.350;13.308;2023-03-15T18:35:28;4.90;90.60
15048;DHT22;7621;52.350;13.308;2023-03-15T18:37:54;4.80;90.80
15048;DHT22;7621;52.350;13.308;2023-03-15T18:40:23;4.80;90.90
15048;DHT22;7621;52.350;13.308;2023-03-15T18:42:49;4.70;90.90
15048;DHT22;7621;52.350;13.308;2023-03-15T18:45:20;4.70;91.00
15048;DHT22;7621;52.350;13.308;2023-03-15T18:47:46;4.70;91.10
15048;DHT22;7621;52.350;13.308;2023-03-15T18:50:12;4.60;91.20
15048;DHT22;7621;52.350;13.308;2023-03-15T18:52:38;4.60;91.40
15048;DHT22;7621;52.350;13.308;2023-03-15T18:55:04;4.50;91.40
15048;DHT22;7621;52.350;13.308;2023-03-15T18:57:35;4.50;91.50
15048;DHT22;7621;52.350;13.308;2023-03-15T19:00:02;4.40;91.60
15048;DHT22;7621;52.350;13.308;2023-03-15T19:02:37;4.40;91.80
15048;DHT22;7621;52.350;13.308;2023-03-15T19:05:03;4.40;91.90
15048;DHT22;7621;52.350;13.308;2023-03-15T19:07:29;4.40;92.00
15048;DHT22;7621;52.350;13.308;2023-03-15T19:09:54;4.30;92.00
15048;DHT22;7621;52.350;13.308;2023-03-15T19:12:20;4.30;92.10
15048;DHT22;7621;52.350;13.308;2023-03-15T19:14:45;4.20;92.10
15048;DHT22;7621;52.350;13.308;2023-03-15T19:17:11;4.20;92.30
15048;DHT22;7621;52.350;13.308;2023-03-15T19:19:36;4.20;92.40
15048;DHT22;7621;52.350;13.308;2023-03-15T19:22:02;4.10;92.50
15048;DHT22;7621;52.350;13.308;2023-03-15T19:24:27;4.10;92.60
15048;DHT22;7621;52.350;13.308;2023-03-15T19:26:53;4.10;92.70
15048;DHT22;7621;52.350;13.308;2023-03-15T19:29:19;4.10;92.80
15048;DHT22;7621;52.350;13.308;2023-03-15T19:31:44;4.00;92.90
15048;DHT22;7621;52.350;13.308;2023-03-15T19:34:10;4.00;93.00
15048;DHT22;7621;52.350;13.308;2023-03-15T19:36:35;4.00;93.10
15048;DHT22;7621;52.350;13.308;2023-03-15T19:39:01;3.90;93.20
15048;DHT22;7621;52.350;13.308;2023-03-15T19:41:29;3.90;93.30
15048;DHT22;7621;52.350;13.308;2023-03-15T19:43:55;3.90;93.40
15048;DHT22;7621;52.350;13.308;2023-03-15T19:46:20;3.80;93.40
15048;DHT22;7621;52.350;13.308;2023-03-15T19:48:47;3.80;93.50
15048;DHT22;7621;52.350;13.308;2023-03-15T19:51:13;3.80;93.60
15048;DHT22;7621;52.350;13.308;2023-03-15T19:53:38;3.70;93.70
15048;DHT22;7621;52.350;13.308;2023-03-15T19:56:05;3.70;93.80
15048;DHT22;7621;52.350;13.308;2023-03-15T19:58:31;3.70;93.90
15048;DHT22;7621;52.350;13.308;2023-03-15T20:00:57;3.70;94.00
15048;DHT22;7621;52.350;13.308;2023-03-15T20:03:23;3.70;94.00
15048;DHT22;7621;52.350;13.308;2023-03-15T20:05:50;3.60;94.10
15048;DHT22;7621;52.350;13.308;2023-03-15T20:08:15;3.60;94.20
15048;DHT22;7621;52.350;13.308;2023-03-15T20:10:41;3.60;94.30
15048;DHT22;7621;52.350;13.308;2023-03-15T20:13:09;3.60;94.30
15048;DHT22;7621;52.350;13.308;2023-03-15T20:15:35;3.50;94.40
15048;DHT22;7621;52.350;13.308;2023-03-15T20:18:01;3.50;94.40
15048;DHT22;7621;52.350;13.308;2023-03-15T20:20:28;3.50;94.60
15048;DHT22;7621;52.350;13.308;2023-03-15T20:22:54;3.50;94.60
15048;DHT22;7621;52.350;13.308;2023-03-15T20:25:20;3.40;94.70
15048;DHT22;7621;52.350;13.308;2023-03-15T20:27:46;3.40;94.70
15048;DHT22;7621;52.350;13.308;2023-03-15T20:30:13;3.30;94.80
15048;DHT22;7621;52.350;13.308;2023-03-15T20:32:40;3.30;94.90
15048;DHT22;7621;52.350;13.308;2023-03-15T20:35:06;3.30;95.00
15048;DHT22;7621;52.350;13.308;2023-03-15T20:37:35;3.30;95.00
15048;DHT22;7621;52.350;13.308;2023-03-15T20:40:01;3.30;95.10
15048;DHT22;7621;52.350;13.308;2023-03-15T20:42:32;3.30;95.20
15048;DHT22;7621;52.350;13.308;2023-03-15T20:44:58;3.20;95.30
15048;DHT22;7621;52.350;13.308;2023-03-15T20:47:23;3.20;95.40
